sensor_id;sensor_type;location;lat;lon;timestamp;temperature;humidity
84739;DHT22;74969;44.836;-0.586;2023-12-20T00:02:18;10.10;87.00
84739;DHT22;74969;44.836;-0.586;2023-12-20T00:04:44;10.00;87.10
84739;DHT22;74969;44.836;-0.586;2023-12-20T00:07:10;10.10;87.00
84739;DHT22;74969;44.836;-0.586;2023-12-20T00:09:35;10.10;87.00
84739;DHT22;74969;44.836;-0.586;2023-12-20T00:12:01;10.10;87.00
84739;DHT22;74969;44.836;-0.586;2023-12-20T00:14:27;10.20;87.10
84739;DHT22;74969;44.836;-0.586;2023-12-20T00:16:53;10.20;87.10
84739;DHT22;74969;44.836;-0.586;2023-12-20T00:19:18;10.20;87.00
84739;DHT22;74969;44.836;-0.586;2023-12-20T00:21:44;10.20;86.90
84739;DHT22;74969;44.836;-0.586;2023-12-20T00:24:10;10.20;87.00
84739;DHT22;74969;44.836;-0.586;2023-12-20T00:26:35;10.30;87.10
84739;DHT22;74969;44.836;-0.586;2023-12-20T00:29:01;10.30;87.40
84739;DHT22;74969;44.836;-0.586;2023-12-20T00:31:26;10.30;87.50
84739;DHT22;74969;44.836;-0.586;2023-12-20T00:33:52;10.40;87.30
84739;DHT22;74969;44.836;-0.586;2023-12-20T00:36:18;10.40;86.80
84739;DHT22;74969;44.836;-0.586;2023-12-20T00:38:43;10.40;86.70
84739;DHT22;74969;44.836;-0.586;2023-12-20T00:41:09;10.40;87.10
84739;DHT22;74969;44.836;-0.586;2023-12-20T00:43:35;10.40;87.10
84739;DHT22;74969;44.836;-0.586;2023-12-20T00:46:00;10.40;86.70
84739;DHT22;74969;44.836;-0.586;2023-12-20T00:48:26;10.20;86.70
84739;DHT22;74969;44.836;-0.586;2023-12-20T00:50:57;10.10;87.00
84739;DHT22;74969;44.836;-0.586;2023-12-20T00:53:23;10.10;87.80
84739;DHT22;74969;44.836;-0.586;2023-12-20T00:55:49;10.30;88.40
84739;DHT22;74969;44.836;-0.586;2023-12-20T00:58:15;10.40;87.90
84739;DHT22;74969;44.836;-0.586;2023-12-20T01:00:41;10.40;87.50
84739;DHT22;74969;44.836;-0.586;2023-12-20T01:03:09;10.40;87.50
84739;DHT22;74969;44.836;-0.586;2023-12-20T01:05:35;10.50;87.40
84739;DHT22;74969;44.836;-0.586;2023-12-20T01:08:00;10.50;87.30
84739;DHT22;74969;44.836;-0.586;2023-12-20T01:10:28;10.50;87.30
84739;DHT22;74969;44.836;-0.586;2023-12-20T01:12:55;10.60;87.40
84739;DHT22;74969;44.836;-0.586;2023-12-20T01:15:20;10.60;87.20
84739;DHT22;74969;44.836;-0.586;2023-12-20T01:17:46;10.70;87.20
84739;DHT22;74969;44.836;-0.586;2023-12-20T01:20:13;10.70;86.80
84739;DHT22;74969;44.836;-0.586;2023-12-20T01:22:38;10.70;86.80
84739;DHT22;74969;44.836;-0.586;2023-12-20T01:25:04;10.70;86.70
84739;DHT22;74969;44.836;-0.586;2023-12-20T01:27:30;10.70;86.40
84739;DHT22;74969;44.836;-0.586;2023-12-20T01:29:56;10.70;86.40
84739;DHT22;74969;44.836;-0.586;2023-12-20T01:32:22;10.70;86.30
84739;DHT22;74969;44.836;-0.586;2023-12-20T01:34:48;10.70;86.30
84739;DHT22;74969;44.836;-0.586;2023-12-20T01:37:14;10.70;86.20
84739;DHT22;74969;44.836;-0.586;2023-12-20T01:39:39;10.70;86.30
84739;DHT22;74969;44.836;-0.586;2023-12-20T01:42:05;10.70;86.60
84739;DHT22;74969;44.836;-0.586;2023-12-20T01:44:31;10.80;86.40
84739;DHT22;74969;44.836;-0.586;2023-12-20T01:46:56;10.80;86.40
84739;DHT22;74969;44.836;-0.586;2023-12-20T01:49:23;10.80;87.10
84739;DHT22;74969;44.836;-0.586;2023-12-20T01:51:49;10.90;87.80
84739;DHT22;74969;44.836;-0.586;2023-12-20T01:54:16;11.10;88.40
84739;DHT22;74969;44.836;-0.586;2023-12-20T01:56:42;11.30;88.00
84739;DHT22;74969;44.836;-0.586;2023-12-20T01:59:08;11.40;86.80
84739;DHT22;74969;44.836;-0.586;2023-12-20T02:01:35;11.40;86.20
84739;DHT22;74969;44.836;-0.586;2023-12-20T02:04:02;11.40;85.80
84739;DHT22;74969;44.836;-0.586;2023-12-20T02:06:30;11.30;84.90
84739;DHT22;74969;44.836;-0.586;2023-12-20T02:08:59;11.20;84.90
84739;DHT22;74969;44.836;-0.586;2023-12-20T02:11:25;11.20;85.00
84739;DHT22;74969;44.836;-0.586;2023-12-20T02:13:51;11.10;84.80
84739;DHT22;74969;44.836;-0.586;2023-12-20T02:16:17;11.10;84.70
84739;DHT22;74969;44.836;-0.586;2023-12-20T02:18:43;11.00;84.80
84739;DHT22;74969;44.836;-0.586;2023-12-20T02:21:12;11.00;84.70
84739;DHT22;74969;44.836;-0.586;2023-12-20T02:23:38;11.00;84.90
84739;DHT22;74969;44.836;-0.586;2023-12-20T02:26:04;10.90;84.60
84739;DHT22;74969;44.836;-0.586;2023-12-20T02:28:31;10.90;84.80
84739;DHT22;74969;44.836;-0.586;2023-12-20T02:30:57;10.90;84.70
84739;DHT22;74969;44.836;-0.586;2023-12-20T02:33:23;10.80;84.60
84739;DHT22;74969;44.836;-0.586;2023-12-20T02:35:48;10.80;84.60
84739;DHT22;74969;44.836;-0.586;2023-12-20T02:38:14;10.80;84.80
84739;DHT22;74969;44.836;-0.586;2023-12-20T02:40:40;10.80;84.60
84739;DHT22;74969;44.836;-0.586;2023-12-20T02:43:05;10.70;84.50
84739;DHT22;74969;44.836;-0.586;2023-12-20T02:45:31;10.70;84.50
84739;DHT22;74969;44.836;-0.586;2023-12-20T02:47:57;10.70;84.80
84739;DHT22;74969;44.836;-0.586;2023-12-20T02:50:22;10.70;84.90
84739;DHT22;74969;44.836;-0.586;2023-12-20T02:52:48;10.70;84.90
84739;DHT22;74969;44.836;-0.586;2023-12-20T02:55:13;10.70;84.90
84739;DHT22;74969;44.836;-0.586;2023-12-20T02:57:39;10.70;84.60
84739;DHT22;74969;44.836;-0.586;2023-12-20T03:00:08;10.70;84.60
84739;DHT22;74969;44.836;-0.586;2023-12-20T03:02:35;10.60;84.50
84739;DHT22;74969;44.836;-0.586;2023-12-20T03:05:01;10.60;84.20
84739;DHT22;74969;44.836;-0.586;2023-12-20T03:07:27;10.60;84.40
84739;DHT22;74969;44.836;-0.586;2023-12-20T03:09:52;10.60;84.10
84739;DHT22;74969;44.836;-0.586;2023-12-20T03:12:18;10.50;84.20
84739;DHT22;74969;44.836;-0.586;2023-12-20T03:14:44;10.50;84.20
84739;DHT22;74969;44.836;-0.586;2023-12-20T03:17:10;10.50;84.30
84739;DHT22;74969;44.836;-0.586;2023-12-20T03:19:35;10.50;84.20
84739;DHT22;74969;44.836;-0.586;2023-12-20T03:22:01;10.50;84.10
84739;DHT22;74969;44.836;-0.586;2023-12-20T03:24:27;10.50;84.10
84739;DHT22;74969;44.836;-0.586;2023-12-20T03:26:53;10.50;84.10
84739;DHT22;74969;44.836;-0.586;2023-12-20T03:29:18;10.50;83.90
84739;DHT22;74969;44.836;-0.586;2023-12-20T03:31:44;10.50;83.80
84739;DHT22;74969;44.836;-0.586;2023-12-20T03:34:11;10.50;83.70
84739;DHT22;74969;44.836;-0.586;2023-12-20T03:36:37;10.50;83.80
84739;DHT22;74969;44.836;-0.586;2023-12-20T03:39:03;10.50;83.70
84739;DHT22;74969;44.836;-0.586;2023-12-20T03:41:28;10.40;84.00
84739;DHT22;74969;44.836;-0.586;2023-12-20T03:43:54;10.40;84.00
84739;DHT22;74969;44.836;-0.586;2023-12-20T03:46:20;10.40;83.90
84739;DHT22;74969;44.836;-0.586;2023-12-20T03:48:45;10.40;83.90
84739;DHT22;74969;44.836;-0.586;2023-12-20T03:51:11;10.40;83.60
84739;DHT22;74969;44.836;-0.586;2023-12-20T03:53:37;10.40;83.80
84739;DHT22;74969;44.836;-0.586;2023-12-20T03:56:03;10.40;83.60
84739;DHT22;74969;44.836;-0.586;2023-12-20T03:58:29;10.40;83.50
84739;DHT22;74969;44.836;-0.586;2023-12-20T04:00:54;10.30;83.60
84739;DHT22;74969;44.836;-0.586;2023-12-20T04:03:20;10.30;83.50
84739;DHT22;74969;44.836;-0.586;2023-12-20T04:05:46;10.40;83.40
84739;DHT22;74969;44.836;-0.586;2023-12-20T04:08:11;10.30;83.30
84739;DHT22;74969;44.836;-0.586;2023-12-20T04:10:37;10.30;83.30
84739;DHT22;74969;44.836;-0.586;2023-12-20T04:13:04;10.30;83.40
84739;DHT22;74969;44.836;-0.586;2023-12-20T04:15:30;10.30;83.00
84739;DHT22;74969;44.836;-0.586;2023-12-20T04:17:55;10.20;83.10
84739;DHT22;74969;44.836;-0.586;2023-12-20T04:20:21;10.20;83.20
84739;DHT22;74969;44.836;-0.586;2023-12-20T04:22:46;10.20;83.00
84739;DHT22;74969;44.836;-0.586;2023-12-20T04:25:12;10.10;82.80
84739;DHT22;74969;44.836;-0.586;2023-12-20T04:27:38;10.10;82.90
84739;DHT22;74969;44.836;-0.586;2023-12-20T04:30:04;10.10;82.70
84739;DHT22;74969;44.836;-0.586;2023-12-20T04:32:29;10.10;82.10
84739;DHT22;74969;44.836;-0.586;2023-12-20T04:34:55;10.00;82.10
84739;DHT22;74969;44.836;-0.586;2023-12-20T04:37:21;9.90;82.10
84739;DHT22;74969;44.836;-0.586;2023-12-20T04:39:46;9.90;82.40
84739;DHT22;74969;44.836;-0.586;2023-12-20T04:42:12;9.90;81.90
84739;DHT22;74969;44.836;-0.586;2023-12-20T04:44:38;9.90;82.30
84739;DHT22;74969;44.836;-0.586;2023-12-20T04:47:03;9.90;81.90
84739;DHT22;74969;44.836;-0.586;2023-12-20T04:49:29;9.90;81.30
84739;DHT22;74969;44.836;-0.586;2023-12-20T04:51:55;9.80;80.70
84739;DHT22;74969;44.836;-0.586;2023-12-20T04:54:21;9.70;80.70
84739;DHT22;74969;44.836;-0.586;2023-12-20T04:56:47;9.60;80.30
84739;DHT22;74969;44.836;-0.586;2023-12-20T04:59:12;9.60;80.00
84739;DHT22;74969;44.836;-0.586;2023-12-20T05:01:39;9.50;79.60
84739;DHT22;74969;44.836;-0.586;2023-12-20T05:04:04;9.40;79.20
84739;DHT22;74969;44.836;-0.586;2023-12-20T05:06:30;9.30;78.80
84739;DHT22;74969;44.836;-0.586;2023-12-20T05:08:56;9.30;78.80
84739;DHT22;74969;44.836;-0.586;2023-12-20T05:11:21;9.20;77.50
84739;DHT22;74969;44.836;-0.586;2023-12-20T05:13:47;9.20;78.00
84739;DHT22;74969;44.836;-0.586;2023-12-20T05:16:13;9.10;77.30
84739;DHT22;74969;44.836;-0.586;2023-12-20T05:18:40;9.10;77.40
84739;DHT22;74969;44.836;-0.586;2023-12-20T05:21:05;9.10;76.10
84739;DHT22;74969;44.836;-0.586;2023-12-20T05:23:31;9.00;76.60
84739;DHT22;74969;44.836;-0.586;2023-12-20T05:25:57;9.10;76.90
84739;DHT22;74969;44.836;-0.586;2023-12-20T05:28:22;9.00;76.20
84739;DHT22;74969;44.836;-0.586;2023-12-20T05:30:48;9.00;76.30
84739;DHT22;74969;44.836;-0.586;2023-12-20T05:33:14;9.00;76.30
84739;DHT22;74969;44.836;-0.586;2023-12-20T05:35:39;8.90;75.70
84739;DHT22;74969;44.836;-0.586;2023-12-20T05:38:05;8.90;76.30
84739;DHT22;74969;44.836;-0.586;2023-12-20T05:40:31;9.00;76.40
84739;DHT22;74969;44.836;-0.586;2023-12-20T05:42:57;9.00;76.20
84739;DHT22;74969;44.836;-0.586;2023-12-20T05:45:22;8.90;75.90
84739;DHT22;74969;44.836;-0.586;2023-12-20T05:47:48;8.90;75.10
84739;DHT22;74969;44.836;-0.586;2023-12-20T05:50:14;8.80;75.00
84739;DHT22;74969;44.836;-0.586;2023-12-20T05:52:39;8.80;75.30
84739;DHT22;74969;44.836;-0.586;2023-12-20T05:55:05;8.80;75.40
84739;DHT22;74969;44.836;-0.586;2023-12-20T05:57:31;8.70;75.00
84739;DHT22;74969;44.836;-0.586;2023-12-20T05:59:56;8.70;74.60
84739;DHT22;74969;44.836;-0.586;2023-12-20T06:02:22;8.70;74.70
84739;DHT22;74969;44.836;-0.586;2023-12-20T06:04:48;8.70;74.60
84739;DHT22;74969;44.836;-0.586;2023-12-20T06:07:14;8.70;74.30
84739;DHT22;74969;44.836;-0.586;2023-12-20T06:09:39;8.70;74.40
84739;DHT22;74969;44.836;-0.586;2023-12-20T06:12:06;8.70;74.50
84739;DHT22;74969;44.836;-0.586;2023-12-20T06:14:32;8.70;74.30
84739;DHT22;74969;44.836;-0.586;2023-12-20T06:16:58;8.60;73.50
84739;DHT22;74969;44.836;-0.586;2023-12-20T06:19:23;8.60;73.50
84739;DHT22;74969;44.836;-0.586;2023-12-20T06:21:49;8.50;73.30
84739;DHT22;74969;44.836;-0.586;2023-12-20T06:24:15;8.50;73.60
84739;DHT22;74969;44.836;-0.586;2023-12-20T06:26:40;8.50;73.30
84739;DHT22;74969;44.836;-0.586;2023-12-20T06:29:06;8.50;73.30
84739;DHT22;74969;44.836;-0.586;2023-12-20T06:31:32;8.50;73.40
84739;DHT22;74969;44.836;-0.586;2023-12-20T06:33:58;8.50;73.60
84739;DHT22;74969;44.836;-0.586;2023-12-20T06:36:28;8.50;73.20
84739;DHT22;74969;44.836;-0.586;2023-12-20T06:38:54;8.40;73.20
84739;DHT22;74969;44.836;-0.586;2023-12-20T06:41:19;8.40;73.30
84739;DHT22;74969;44.836;-0.586;2023-12-20T06:43:45;8.40;73.00
84739;DHT22;74969;44.836;-0.586;2023-12-20T06:46:11;8.40;73.20
84739;DHT22;74969;44.836;-0.586;2023-12-20T06:48:38;8.40;73.40
84739;DHT22;74969;44.836;-0.586;2023-12-20T06:51:05;8.40;73.50
84739;DHT22;74969;44.836;-0.586;2023-12-20T06:53:30;8.30;73.60
84739;DHT22;74969;44.836;-0.586;2023-12-20T06:55:56;8.30;73.10
84739;DHT22;74969;44.836;-0.586;2023-12-20T06:58:22;8.30;73.20
84739;DHT22;74969;44.836;-0.586;2023-12-20T07:00:48;8.20;73.50
84739;DHT22;74969;44.836;-0.586;2023-12-20T07:03:14;8.20;73.50
84739;DHT22;74969;44.836;-0.586;2023-12-20T07:05:39;8.10;73.60
84739;DHT22;74969;44.836;-0.586;2023-12-20T07:08:06;8.10;73.40
84739;DHT22;74969;44.836;-0.586;2023-12-20T07:10:32;8.00;73.50
84739;DHT22;74969;44.836;-0.586;2023-12-20T07:12:58;8.00;73.70
84739;DHT22;74969;44.836;-0.586;2023-12-20T07:15:24;8.00;73.30
84739;DHT22;74969;44.836;-0.586;2023-12-20T07:17:49;7.90;73.70
84739;DHT22;74969;44.836;-0.586;2023-12-20T07:20:15;7.80;73.80
84739;DHT22;74969;44.836;-0.586;2023-12-20T07:22:41;7.80;73.60
84739;DHT22;74969;44.836;-0.586;2023-12-20T07:25:07;7.70;73.80
84739;DHT22;74969;44.836;-0.586;2023-12-20T07:27:33;7.70;74.10
84739;DHT22;74969;44.836;-0.586;2023-12-20T07:29:58;7.60;74.10
84739;DHT22;74969;44.836;-0.586;2023-12-20T07:32:24;7.60;74.60
84739;DHT22;74969;44.836;-0.586;2023-12-20T07:34:50;7.50;74.30
84739;DHT22;74969;44.836;-0.586;2023-12-20T07:37:16;7.40;74.30
84739;DHT22;74969;44.836;-0.586;2023-12-20T07:39:42;7.40;74.60
84739;DHT22;74969;44.836;-0.586;2023-12-20T07:42:08;7.40;74.70
84739;DHT22;74969;44.836;-0.586;2023-12-20T07:44:34;7.30;74.40
84739;DHT22;74969;44.836;-0.586;2023-12-20T07:47:03;7.30;74.70
84739;DHT22;74969;44.836;-0.586;2023-12-20T07:49:30;7.20;74.70
84739;DHT22;74969;44.836;-0.586;2023-12-20T07:51:56;7.20;74.90
84739;DHT22;74969;44.836;-0.586;2023-12-20T07:54:22;7.20;74.90
84739;DHT22;74969;44.836;-0.586;2023-12-20T07:56:48;7.20;74.90
84739;DHT22;74969;44.836;-0.586;2023-12-20T07:59:14;7.20;74.90
84739;DHT22;74969;44.836;-0.586;2023-12-20T08:01:40;7.20;75.10
84739;DHT22;74969;44.836;-0.586;2023-12-20T08:04:05;7.20;75.00
84739;DHT22;74969;44.836;-0.586;2023-12-20T08:06:31;7.20;74.90
84739;DHT22;74969;44.836;-0.586;2023-12-20T08:08:57;7.20;75.00
84739;DHT22;74969;44.836;-0.586;2023-12-20T08:11:23;7.10;74.80
84739;DHT22;74969;44.836;-0.586;2023-12-20T08:13:48;7.10;74.90
84739;DHT22;74969;44.836;-0.586;2023-12-20T08:16:14;7.10;75.00
84739;DHT22;74969;44.836;-0.586;2023-12-20T08:18:41;7.10;75.10
84739;DHT22;74969;44.836;-0.586;2023-12-20T08:21:07;7.10;75.00
84739;DHT22;74969;44.836;-0.586;2023-12-20T08:23:34;7.10;75.10
84739;DHT22;74969;44.836;-0.586;2023-12-20T08:26:51;7.60;75.10
84739;DHT22;74969;44.836;-0.586;2023-12-20T08:29:17;7.10;75.20
84739;DHT22;74969;44.836;-0.586;2023-12-20T08:31:43;7.20;75.10
84739;DHT22;74969;44.836;-0.586;2023-12-20T08:34:09;7.10;75.30
84739;DHT22;74969;44.836;-0.586;2023-12-20T08:36:37;7.10;75.40
84739;DHT22;74969;44.836;-0.586;2023-12-20T08:39:02;7.10;75.40
84739;DHT22;74969;44.836;-0.586;2023-12-20T08:41:31;7.10;75.60
84739;DHT22;74969;44.836;-0.586;2023-12-20T08:43:57;7.20;75.60
84739;DHT22;74969;44.836;-0.586;2023-12-20T08:46:23;7.20;75.50
84739;DHT22;74969;44.836;-0.586;2023-12-20T08:48:48;7.20;75.50
84739;DHT22;74969;44.836;-0.586;2023-12-20T08:51:14;7.30;75.60
84739;DHT22;74969;44.836;-0.586;2023-12-20T08:53:40;7.30;75.50
84739;DHT22;74969;44.836;-0.586;2023-12-20T08:56:07;7.30;75.70
84739;DHT22;74969;44.836;-0.586;2023-12-20T08:58:32;7.30;75.60
84739;DHT22;74969;44.836;-0.586;2023-12-20T09:00:59;7.30;75.80
84739;DHT22;74969;44.836;-0.586;2023-12-20T09:03:24;7.40;75.90
84739;DHT22;74969;44.836;-0.586;2023-12-20T09:05:50;7.40;75.60
84739;DHT22;74969;44.836;-0.586;2023-12-20T09:08:16;7.50;75.60
84739;DHT22;74969;44.836;-0.586;2023-12-20T09:10:41;7.50;75.30
84739;DHT22;74969;44.836;-0.586;2023-12-20T09:13:07;7.60;75.30
84739;DHT22;74969;44.836;-0.586;2023-12-20T09:15:32;7.70;75.30
84739;DHT22;74969;44.836;-0.586;2023-12-20T09:17:59;7.70;75.10
84739;DHT22;74969;44.836;-0.586;2023-12-20T09:20:25;7.80;74.90
84739;DHT22;74969;44.836;-0.586;2023-12-20T09:22:51;7.90;74.50
84739;DHT22;74969;44.836;-0.586;2023-12-20T09:26:44;8.50;73.90
84739;DHT22;74969;44.836;-0.586;2023-12-20T09:29:09;8.10;74.20
84739;DHT22;74969;44.836;-0.586;2023-12-20T09:31:40;8.10;73.90
84739;DHT22;74969;44.836;-0.586;2023-12-20T09:34:06;8.20;73.60
84739;DHT22;74969;44.836;-0.586;2023-12-20T09:36:32;8.20;73.80
84739;DHT22;74969;44.836;-0.586;2023-12-20T09:39:01;8.30;73.70
84739;DHT22;74969;44.836;-0.586;2023-12-20T09:41:29;8.40;73.50
84739;DHT22;74969;44.836;-0.586;2023-12-20T09:44:00;8.50;73.20
84739;DHT22;74969;44.836;-0.586;2023-12-20T09:46:29;8.70;73.10
84739;DHT22;74969;44.836;-0.586;2023-12-20T09:48:59;9.70;72.50
84739;DHT22;74969;44.836;-0.586;2023-12-20T09:51:27;10.30;68.10
84739;DHT22;74969;44.836;-0.586;2023-12-20T09:53:54;10.00;68.40
84739;DHT22;74969;44.836;-0.586;2023-12-20T09:56:22;9.80;68.90
84739;DHT22;74969;44.836;-0.586;2023-12-20T09:58:48;9.50;69.50
84739;DHT22;74969;44.836;-0.586;2023-12-20T10:01:15;9.40;69.70
84739;DHT22;74969;44.836;-0.586;2023-12-20T10:03:41;9.40;69.90
84739;DHT22;74969;44.836;-0.586;2023-12-20T10:06:08;9.40;69.70
84739;DHT22;74969;44.836;-0.586;2023-12-20T10:08:37;9.40;69.80
84739;DHT22;74969;44.836;-0.586;2023-12-20T10:11:03;9.40;69.30
84739;DHT22;74969;44.836;-0.586;2023-12-20T10:13:29;9.40;69.60
84739;DHT22;74969;44.836;-0.586;2023-12-20T10:15:55;9.40;69.10
84739;DHT22;74969;44.836;-0.586;2023-12-20T10:18:21;9.40;68.90
84739;DHT22;74969;44.836;-0.586;2023-12-20T10:20:47;9.50;68.90
84739;DHT22;74969;44.836;-0.586;2023-12-20T10:23:15;9.50;69.00
84739;DHT22;74969;44.836;-0.586;2023-12-20T10:25:40;9.60;68.70
84739;DHT22;74969;44.836;-0.586;2023-12-20T10:28:14;9.70;68.40
84739;DHT22;74969;44.836;-0.586;2023-12-20T10:30:40;9.70;68.60
84739;DHT22;74969;44.836;-0.586;2023-12-20T10:33:07;9.80;68.60
84739;DHT22;74969;44.836;-0.586;2023-12-20T10:35:37;9.90;68.40
84739;DHT22;74969;44.836;-0.586;2023-12-20T10:38:04;10.00;68.30
84739;DHT22;74969;44.836;-0.586;2023-12-20T10:40:31;10.10;67.70
84739;DHT22;74969;44.836;-0.586;2023-12-20T10:42:59;10.10;67.60
84739;DHT22;74969;44.836;-0.586;2023-12-20T10:45:26;10.20;67.60
84739;DHT22;74969;44.836;-0.586;2023-12-20T10:47:52;10.40;67.20
84739;DHT22;74969;44.836;-0.586;2023-12-20T10:50:19;10.40;67.10
84739;DHT22;74969;44.836;-0.586;2023-12-20T10:52:46;10.50;67.30
84739;DHT22;74969;44.836;-0.586;2023-12-20T10:55:12;10.70;66.00
84739;DHT22;74969;44.836;-0.586;2023-12-20T10:57:38;10.70;65.80
84739;DHT22;74969;44.836;-0.586;2023-12-20T11:00:06;10.80;65.80
84739;DHT22;74969;44.836;-0.586;2023-12-20T11:02:38;10.90;66.60
84739;DHT22;74969;44.836;-0.586;2023-12-20T11:05:23;11.00;65.50
84739;DHT22;74969;44.836;-0.586;2023-12-20T11:08:17;11.00;65.90
84739;DHT22;74969;44.836;-0.586;2023-12-20T11:10:55;11.10;66.40
84739;DHT22;74969;44.836;-0.586;2023-12-20T11:13:34;11.30;65.50
84739;DHT22;74969;44.836;-0.586;2023-12-20T11:16:02;11.30;65.00
84739;DHT22;74969;44.836;-0.586;2023-12-20T11:18:29;11.30;65.00
84739;DHT22;74969;44.836;-0.586;2023-12-20T11:21:06;11.30;65.30
84739;DHT22;74969;44.836;-0.586;2023-12-20T11:23:35;11.40;65.20
84739;DHT22;74969;44.836;-0.586;2023-12-20T11:26:02;11.50;64.80
84739;DHT22;74969;44.836;-0.586;2023-12-20T11:28:28;11.70;64.90
84739;DHT22;74969;44.836;-0.586;2023-12-20T11:30:57;11.70;64.50
84739;DHT22;74969;44.836;-0.586;2023-12-20T11:33:37;11.80;65.00
84739;DHT22;74969;44.836;-0.586;2023-12-20T11:36:03;11.70;64.10
84739;DHT22;74969;44.836;-0.586;2023-12-20T11:38:36;11.60;64.20
84739;DHT22;74969;44.836;-0.586;2023-12-20T11:41:05;11.50;64.80
84739;DHT22;74969;44.836;-0.586;2023-12-20T11:43:32;11.50;64.00
84739;DHT22;74969;44.836;-0.586;2023-12-20T11:46:04;11.50;64.70
84739;DHT22;74969;44.836;-0.586;2023-12-20T11:48:31;11.50;64.70
84739;DHT22;74969;44.836;-0.586;2023-12-20T11:50:57;11.50;64.60
84739;DHT22;74969;44.836;-0.586;2023-12-20T11:53:23;11.50;64.50
84739;DHT22;74969;44.836;-0.586;2023-12-20T11:55:49;11.50;64.10
84739;DHT22;74969;44.836;-0.586;2023-12-20T11:58:15;11.50;64.90
84739;DHT22;74969;44.836;-0.586;2023-12-20T12:00:42;11.60;64.90
84739;DHT22;74969;44.836;-0.586;2023-12-20T12:03:09;11.60;65.30
84739;DHT22;74969;44.836;-0.586;2023-12-20T12:05:35;11.70;64.90
84739;DHT22;74969;44.836;-0.586;2023-12-20T12:08:01;11.80;64.70
84739;DHT22;74969;44.836;-0.586;2023-12-20T12:10:28;11.70;64.80
84739;DHT22;74969;44.836;-0.586;2023-12-20T12:12:54;11.70;64.40
84739;DHT22;74969;44.836;-0.586;2023-12-20T12:15:20;11.70;64.60
84739;DHT22;74969;44.836;-0.586;2023-12-20T12:17:53;11.70;64.70
84739;DHT22;74969;44.836;-0.586;2023-12-20T12:20:20;11.60;64.80
84739;DHT22;74969;44.836;-0.586;2023-12-20T12:22:46;11.70;64.70
84739;DHT22;74969;44.836;-0.586;2023-12-20T12:25:16;11.70;64.30
84739;DHT22;74969;44.836;-0.586;2023-12-20T12:27:42;11.80;64.80
84739;DHT22;74969;44.836;-0.586;2023-12-20T12:30:09;11.80;64.80
84739;DHT22;74969;44.836;-0.586;2023-12-20T12:32:35;11.80;64.60
84739;DHT22;74969;44.836;-0.586;2023-12-20T12:35:05;11.70;64.20
84739;DHT22;74969;44.836;-0.586;2023-12-20T12:37:34;11.70;64.60
84739;DHT22;74969;44.836;-0.586;2023-12-20T12:40:00;11.70;64.70
84739;DHT22;74969;44.836;-0.586;2023-12-20T12:42:26;11.70;64.40
84739;DHT22;74969;44.836;-0.586;2023-12-20T12:44:54;11.80;65.00
84739;DHT22;74969;44.836;-0.586;2023-12-20T12:47:21;11.90;64.60
84739;DHT22;74969;44.836;-0.586;2023-12-20T12:49:47;11.90;64.10
84739;DHT22;74969;44.836;-0.586;2023-12-20T12:52:13;11.90;64.30
84739;DHT22;74969;44.836;-0.586;2023-12-20T12:54:39;11.90;63.90
84739;DHT22;74969;44.836;-0.586;2023-12-20T12:57:04;11.90;64.20
84739;DHT22;74969;44.836;-0.586;2023-12-20T12:59:30;11.80;64.30
84739;DHT22;74969;44.836;-0.586;2023-12-20T13:01:56;11.70;64.50
84739;DHT22;74969;44.836;-0.586;2023-12-20T13:04:22;11.70;64.60
84739;DHT22;74969;44.836;-0.586;2023-12-20T13:06:48;11.70;64.80
84739;DHT22;74969;44.836;-0.586;2023-12-20T13:09:13;11.70;64.90
84739;DHT22;74969;44.836;-0.586;2023-12-20T13:11:40;11.70;64.90
84739;DHT22;74969;44.836;-0.586;2023-12-20T13:14:06;11.70;65.10
84739;DHT22;74969;44.836;-0.586;2023-12-20T13:16:36;11.80;65.20
84739;DHT22;74969;44.836;-0.586;2023-12-20T13:19:01;11.80;64.70
84739;DHT22;74969;44.836;-0.586;2023-12-20T13:21:27;11.80;65.50
84739;DHT22;74969;44.836;-0.586;2023-12-20T13:23:53;11.70;65.60
84739;DHT22;74969;44.836;-0.586;2023-12-20T13:26:19;11.70;65.80
84739;DHT22;74969;44.836;-0.586;2023-12-20T13:30:37;12.10;65.90
84739;DHT22;74969;44.836;-0.586;2023-12-20T13:33:03;11.70;66.00
84739;DHT22;74969;44.836;-0.586;2023-12-20T13:35:28;11.70;66.00
84739;DHT22;74969;44.836;-0.586;2023-12-20T13:37:54;11.70;66.00
84739;DHT22;74969;44.836;-0.586;2023-12-20T13:40:21;11.70;65.90
84739;DHT22;74969;44.836;-0.586;2023-12-20T13:42:47;11.70;64.30
84739;DHT22;74969;44.836;-0.586;2023-12-20T13:45:13;11.60;63.80
84739;DHT22;74969;44.836;-0.586;2023-12-20T13:47:39;11.60;63.30
84739;DHT22;74969;44.836;-0.586;2023-12-20T13:51:35;12.10;62.50
84739;DHT22;74969;44.836;-0.586;2023-12-20T13:54:01;11.60;63.20
84739;DHT22;74969;44.836;-0.586;2023-12-20T13:56:26;11.70;62.20
84739;DHT22;74969;44.836;-0.586;2023-12-20T13:58:52;11.70;62.60
84739;DHT22;74969;44.836;-0.586;2023-12-20T14:01:18;11.80;62.30
84739;DHT22;74969;44.836;-0.586;2023-12-20T14:03:43;11.80;61.90
84739;DHT22;74969;44.836;-0.586;2023-12-20T14:06:09;11.80;61.90
84739;DHT22;74969;44.836;-0.586;2023-12-20T14:08:35;11.90;61.70
84739;DHT22;74969;44.836;-0.586;2023-12-20T14:11:01;11.90;61.40
84739;DHT22;74969;44.836;-0.586;2023-12-20T14:13:27;12.00;61.70
84739;DHT22;74969;44.836;-0.586;2023-12-20T14:15:53;12.20;61.00
84739;DHT22;74969;44.836;-0.586;2023-12-20T14:18:20;12.10;60.40
84739;DHT22;74969;44.836;-0.586;2023-12-20T14:20:47;12.10;60.70
84739;DHT22;74969;44.836;-0.586;2023-12-20T14:23:13;12.20;60.60
84739;DHT22;74969;44.836;-0.586;2023-12-20T14:25:42;12.20;60.70
84739;DHT22;74969;44.836;-0.586;2023-12-20T14:28:08;12.10;61.30
84739;DHT22;74969;44.836;-0.586;2023-12-20T14:30:35;12.10;62.10
84739;DHT22;74969;44.836;-0.586;2023-12-20T14:33:02;12.20;61.50
84739;DHT22;74969;44.836;-0.586;2023-12-20T14:35:27;12.20;61.50
84739;DHT22;74969;44.836;-0.586;2023-12-20T14:39:06;12.80;59.90
84739;DHT22;74969;44.836;-0.586;2023-12-20T14:41:34;12.20;60.80
84739;DHT22;74969;44.836;-0.586;2023-12-20T14:44:00;12.10;61.00
84739;DHT22;74969;44.836;-0.586;2023-12-20T14:46:26;12.00;61.00
84739;DHT22;74969;44.836;-0.586;2023-12-20T14:48:51;12.00;61.00
84739;DHT22;74969;44.836;-0.586;2023-12-20T14:51:17;11.90;61.40
84739;DHT22;74969;44.836;-0.586;2023-12-20T14:53:43;11.90;61.50
84739;DHT22;74969;44.836;-0.586;2023-12-20T14:56:08;11.90;61.60
84739;DHT22;74969;44.836;-0.586;2023-12-20T14:58:34;11.90;61.90
84739;DHT22;74969;44.836;-0.586;2023-12-20T15:01:00;11.90;62.00
84739;DHT22;74969;44.836;-0.586;2023-12-20T15:03:26;11.80;62.20
84739;DHT22;74969;44.836;-0.586;2023-12-20T15:05:52;11.80;62.00
84739;DHT22;74969;44.836;-0.586;2023-12-20T15:08:17;11.80;61.90
84739;DHT22;74969;44.836;-0.586;2023-12-20T15:10:43;11.90;62.20
84739;DHT22;74969;44.836;-0.586;2023-12-20T15:13:09;11.90;61.50
84739;DHT22;74969;44.836;-0.586;2023-12-20T15:15:35;11.80;59.60
84739;DHT22;74969;44.836;-0.586;2023-12-20T15:18:00;11.80;59.10
84739;DHT22;74969;44.836;-0.586;2023-12-20T15:20:28;11.80;59.00
84739;DHT22;74969;44.836;-0.586;2023-12-20T15:22:54;11.70;59.50
84739;DHT22;74969;44.836;-0.586;2023-12-20T15:25:20;11.70;59.30